sensor_id;sensor_type;location;lat;lon;timestamp;pressure;altitude;pressure_sealevel;temperature;humidity
71145;BME280;58812;47.698;17.726;2023-12-22T00:01:30;97997.66;;;5.24;100.00
71145;BME280;58812;47.698;17.726;2023-12-22T00:03:55;97995.66;;;5.26;100.00
71145;BME280;58812;47.698;17.726;2023-12-22T00:06:21;97980.56;;;5.26;100.00
71145;BME280;58812;47.698;17.726;2023-12-22T00:08:46;97969.62;;;5.29;100.00
71145;BME280;58812;47.698;17.726;2023-12-22T00:11:12;97972.28;;;5.29;100.00
71145;BME280;58812;47.698;17.726;2023-12-22T00:13:37;97987.38;;;5.29;100.00
71145;BME280;58812;47.698;17.726;2023-12-22T00:16:03;97989.03;;;5.30;100.00
71145;BME280;58812;47.698;17.726;2023-12-22T00:18:29;97999.00;;;5.28;100.00
71145;BME280;58812;47.698;17.726;2023-12-22T00:20:54;98015.06;;;5.26;100.00
71145;BME280;58812;47.698;17.726;2023-12-22T00:23:19;98009.25;;;5.31;100.00
71145;BME280;58812;47.698;17.726;2023-12-22T00:25:45;97988.84;;;5.31;100.00
71145;BME280;58812;47.698;17.726;2023-12-22T00:28:10;97921.53;;;5.32;100.00
71145;BME280;58812;47.698;17.726;2023-12-22T00:30:36;97895.81;;;5.33;100.00
71145;BME280;58812;47.698;17.726;2023-12-22T00:33:01;97897.53;;;5.26;100.00
71145;BME280;58812;47.698;17.726;2023-12-22T00:35:27;97933.50;;;5.20;100.00
71145;BME280;58812;47.698;17.726;2023-12-22T00:37:52;97949.59;;;5.19;100.00
71145;BME280;58812;47.698;17.726;2023-12-22T00:40:18;97964.03;;;5.16;100.00
71145;BME280;58812;47.698;17.726;2023-12-22T00:42:44;97967.19;;;5.12;100.00
71145;BME280;58812;47.698;17.726;2023-12-22T00:45:09;97970.34;;;5.07;100.00
71145;BME280;58812;47.698;17.726;2023-12-22T00:47:35;97971.34;;;5.06;100.00
71145;BME280;58812;47.698;17.726;2023-12-22T00:50:01;97995.53;;;5.03;100.00
71145;BME280;58812;47.698;17.726;2023-12-22T00:52:27;98015.91;;;5.02;100.00
71145;BME280;58812;47.698;17.726;2023-12-22T00:54:53;98027.53;;;5.01;100.00
71145;BME280;58812;47.698;17.726;2023-12-22T00:57:18;98028.53;;;5.00;100.00
71145;BME280;58812;47.698;17.726;2023-12-22T00:59:43;98033.00;;;5.00;100.00
71145;BME280;58812;47.698;17.726;2023-12-22T01:02:13;98027.00;;;4.98;100.00
71145;BME280;58812;47.698;17.726;2023-12-22T01:04:39;98036.13;;;4.95;100.00
71145;BME280;58812;47.698;17.726;2023-12-22T01:07:07;98050.22;;;4.96;100.00
71145;BME280;58812;47.698;17.726;2023-12-22T01:09:32;98055.53;;;4.88;100.00
71145;BME280;58812;47.698;17.726;2023-12-22T01:11:58;98066.97;;;4.88;100.00
71145;BME280;58812;47.698;17.726;2023-12-22T01:14:24;98066.13;;;4.88;100.00
71145;BME280;58812;47.698;17.726;2023-12-22T01:16:49;98070.75;;;4.86;100.00
71145;BME280;58812;47.698;17.726;2023-12-22T01:19:15;98074.56;;;4.83;100.00
71145;BME280;58812;47.698;17.726;2023-12-22T01:21:40;98059.34;;;4.93;100.00
71145;BME280;58812;47.698;17.726;2023-12-22T01:24:05;98076.22;;;4.84;100.00
71145;BME280;58812;47.698;17.726;2023-12-22T01:26:31;98061.66;;;4.88;100.00
71145;BME280;58812;47.698;17.726;2023-12-22T01:28:56;98065.97;;;4.89;100.00
71145;BME280;58812;47.698;17.726;2023-12-22T01:31:21;98055.53;;;4.96;100.00
71145;BME280;58812;47.698;17.726;2023-12-22T01:33:47;98035.81;;;4.98;100.00
71145;BME280;58812;47.698;17.726;2023-12-22T01:36:12;98020.22;;;5.03;100.00
71145;BME280;58812;47.698;17.726;2023-12-22T01:38:38;98005.97;;;5.13;100.00
71145;BME280;58812;47.698;17.726;2023-12-22T01:41:04;97979.09;;;5.16;100.00
71145;BME280;58812;47.698;17.726;2023-12-22T01:43:29;97976.28;;;5.09;100.00
71145;BME280;58812;47.698;17.726;2023-12-22T01:45:58;97984.25;;;5.01;100.00
71145;BME280;58812;47.698;17.726;2023-12-22T01:48:25;97980.13;;;5.06;100.00
71145;BME280;58812;47.698;17.726;2023-12-22T01:50:51;97968.84;;;4.96;100.00
71145;BME280;58812;47.698;17.726;2023-12-22T01:53:19;97950.97;;;4.90;100.00
71145;BME280;58812;47.698;17.726;2023-12-22T01:55:46;97932.06;;;4.85;100.00
71145;BME280;58812;47.698;17.726;2023-12-22T01:58:13;97939.88;;;4.78;100.00
71145;BME280;58812;47.698;17.726;2023-12-22T02:00:39;97958.94;;;4.82;100.00
71145;BME280;58812;47.698;17.726;2023-12-22T02:03:04;97968.03;;;4.79;100.00
71145;BME280;58812;47.698;17.726;2023-12-22T02:05:30;97954.62;;;4.65;100.00
71145;BME280;58812;47.698;17.726;2023-12-22T02:07:56;97960.91;;;4.80;100.00
71145;BME280;58812;47.698;17.726;2023-12-22T02:10:21;97982.28;;;4.62;100.00
71145;BME280;58812;47.698;17.726;2023-12-22T02:12:47;97963.22;;;4.67;100.00
71145;BME280;58812;47.698;17.726;2023-12-22T02:15:13;97964.88;;;4.68;100.00
71145;BME280;58812;47.698;17.726;2023-12-22T02:17:47;97982.47;;;4.69;100.00
71145;BME280;58812;47.698;17.726;2023-12-22T02:20:14;97995.38;;;4.64;100.00
71145;BME280;58812;47.698;17.726;2023-12-22T02:22:40;97988.44;;;4.63;100.00
71145;BME280;58812;47.698;17.726;2023-12-22T02:25:05;97996.69;;;4.68;100.00
71145;BME280;58812;47.698;17.726;2023-12-22T02:27:50;97992.72;;;4.72;100.00
71145;BME280;58812;47.698;17.726;2023-12-22T02:30:26;97981.59;;;4.68;100.00
71145;BME280;58812;47.698;17.726;2023-12-22T02:32:59;97970.22;;;4.76;100.00
71145;BME280;58812;47.698;17.726;2023-12-22T02:35:28;97981.28;;;4.71;100.00
71145;BME280;58812;47.698;17.726;2023-12-22T02:37:56;97996.84;;;4.66;100.00
71145;BME280;58812;47.698;17.726;2023-12-22T02:40:23;98010.47;;;4.63;100.00
71145;BME280;58812;47.698;17.726;2023-12-22T02:42:51;98038.44;;;4.58;100.00
71145;BME280;58812;47.698;17.726;2023-12-22T02:45:18;98015.59;;;4.57;100.00
71145;BME280;58812;47.698;17.726;2023-12-22T02:47:44;98000.38;;;4.75;100.00
71145;BME280;58812;47.698;17.726;2023-12-22T02:50:10;98009.28;;;4.66;100.00
71145;BME280;58812;47.698;17.726;2023-12-22T02:52:37;98022.38;;;4.51;100.00
71145;BME280;58812;47.698;17.726;2023-12-22T02:55:03;98046.16;;;4.43;100.00
71145;BME280;58812;47.698;17.726;2023-12-22T02:57:28;98063.72;;;4.36;100.00
71145;BME280;58812;47.698;17.726;2023-12-22T02:59:54;98054.38;;;4.15;100.00
71145;BME280;58812;47.698;17.726;2023-12-22T03:02:19;98067.47;;;4.25;100.00
71145;BME280;58812;47.698;17.726;2023-12-22T03:04:44;98055.06;;;4.25;100.00
71145;BME280;58812;47.698;17.726;2023-12-22T03:07:12;98046.81;;;4.37;100.00
71145;BME280;58812;47.698;17.726;2023-12-22T03:09:37;98046.00;;;4.36;100.00
71145;BME280;58812;47.698;17.726;2023-12-22T03:12:03;98042.34;;;4.29;100.00
71145;BME280;58812;47.698;17.726;2023-12-22T03:14:29;98043.47;;;4.26;100.00
71145;BME280;58812;47.698;17.726;2023-12-22T03:16:56;98025.78;;;4.27;100.00
71145;BME280;58812;47.698;17.726;2023-12-22T03:19:21;98019.78;;;4.17;100.00
71145;BME280;58812;47.698;17.726;2023-12-22T03:21:48;98037.97;;;4.12;100.00
71145;BME280;58812;47.698;17.726;2023-12-22T03:24:13;98045.00;;;4.29;98.70
71145;BME280;58812;47.698;17.726;2023-12-22T03:26:39;98046.12;;;4.26;98.61
71145;BME280;58812;47.698;17.726;2023-12-22T03:29:04;98044.34;;;4.35;97.16
71145;BME280;58812;47.698;17.726;2023-12-22T03:31:30;98045.03;;;4.45;95.34
71145;BME280;58812;47.698;17.726;2023-12-22T03:33:55;98041.75;;;4.51;94.29
71145;BME280;58812;47.698;17.726;2023-12-22T03:36:21;98050.16;;;4.55;93.13
71145;BME280;58812;47.698;17.726;2023-12-22T03:38:47;98058.28;;;4.53;92.05
71145;BME280;58812;47.698;17.726;2023-12-22T03:41:12;98071.22;;;4.57;91.37
71145;BME280;58812;47.698;17.726;2023-12-22T03:43:38;98074.19;;;4.53;91.59
71145;BME280;58812;47.698;17.726;2023-12-22T03:46:03;98085.31;;;4.57;91.33
71145;BME280;58812;47.698;17.726;2023-12-22T03:48:28;98060.47;;;4.58;90.90
71145;BME280;58812;47.698;17.726;2023-12-22T03:50:54;98065.22;;;4.46;91.69
71145;BME280;58812;47.698;17.726;2023-12-22T03:53:19;98055.13;;;4.50;90.94
71145;BME280;58812;47.698;17.726;2023-12-22T03:55:45;98059.91;;;4.38;92.19
71145;BME280;58812;47.698;17.726;2023-12-22T03:58:10;98060.09;;;4.45;91.54
71145;BME280;58812;47.698;17.726;2023-12-22T04:00:35;98054.28;;;4.49;90.79
71145;BME280;58812;47.698;17.726;2023-12-22T04:03:01;98061.25;;;4.42;91.53
71145;BME280;58812;47.698;17.726;2023-12-22T04:05:27;98068.19;;;4.35;92.61
71145;BME280;58812;47.698;17.726;2023-12-22T04:07:53;98066.53;;;4.42;92.38
71145;BME280;58812;47.698;17.726;2023-12-22T04:10:18;98061.41;;;4.41;92.38
71145;BME280;58812;47.698;17.726;2023-12-22T04:12:44;98076.81;;;4.45;92.10
71145;BME280;58812;47.698;17.726;2023-12-22T04:15:10;98073.66;;;4.34;93.28
71145;BME280;58812;47.698;17.726;2023-12-22T04:17:35;98069.12;;;4.26;93.64
71145;BME280;58812;47.698;17.726;2023-12-22T04:20:01;98061.06;;;4.36;92.63
71145;BME280;58812;47.698;17.726;2023-12-22T04:22:26;98068.84;;;4.37;92.26
71145;BME280;58812;47.698;17.726;2023-12-22T04:24:52;98084.44;;;4.40;91.82
71145;BME280;58812;47.698;17.726;2023-12-22T04:27:17;98100.28;;;4.32;92.60
71145;BME280;58812;47.698;17.726;2023-12-22T04:29:43;98098.59;;;4.23;92.98
71145;BME280;58812;47.698;17.726;2023-12-22T04:32:09;98093.13;;;4.24;92.37
71145;BME280;58812;47.698;17.726;2023-12-22T04:34:34;98095.66;;;4.34;90.68
71145;BME280;58812;47.698;17.726;2023-12-22T04:36:59;98102.28;;;4.38;89.07
71145;BME280;58812;47.698;17.726;2023-12-22T04:39:25;98101.63;;;4.36;87.73
71145;BME280;58812;47.698;17.726;2023-12-22T04:41:50;98111.37;;;4.27;86.93
71145;BME280;58812;47.698;17.726;2023-12-22T04:44:15;98102.16;;;4.48;83.65
71145;BME280;58812;47.698;17.726;2023-12-22T04:46:41;98109.25;;;4.39;83.07
71145;BME280;58812;47.698;17.726;2023-12-22T04:49:06;98113.75;;;4.47;81.99
71145;BME280;58812;47.698;17.726;2023-12-22T04:51:32;98093.56;;;4.46;81.34
71145;BME280;58812;47.698;17.726;2023-12-22T04:53:57;98108.09;;;4.34;82.05
71145;BME280;58812;47.698;17.726;2023-12-22T04:56:22;98109.09;;;4.41;80.97
71145;BME280;58812;47.698;17.726;2023-12-22T04:58:48;98108.28;;;4.40;80.73
71145;BME280;58812;47.698;17.726;2023-12-22T05:01:13;98121.25;;;4.60;77.26
71145;BME280;58812;47.698;17.726;2023-12-22T05:03:39;98109.94;;;4.49;77.88
71145;BME280;58812;47.698;17.726;2023-12-22T05:06:04;98119.88;;;4.47;77.78
71145;BME280;58812;47.698;17.726;2023-12-22T05:08:29;98145.38;;;4.48;77.66
71145;BME280;58812;47.698;17.726;2023-12-22T05:10:55;98139.88;;;4.42;78.58
71145;BME280;58812;47.698;17.726;2023-12-22T05:13:20;98154.94;;;4.33;79.66
71145;BME280;58812;47.698;17.726;2023-12-22T05:15:46;98156.84;;;4.23;80.78
71145;BME280;58812;47.698;17.726;2023-12-22T05:18:11;98158.22;;;4.27;80.51
71145;BME280;58812;47.698;17.726;2023-12-22T05:20:36;98173.78;;;4.30;80.63
71145;BME280;58812;47.698;17.726;2023-12-22T05:23:02;98182.81;;;4.19;81.75
71145;BME280;58812;47.698;17.726;2023-12-22T05:25:27;98195.50;;;4.34;79.37
71145;BME280;58812;47.698;17.726;2023-12-22T05:27:54;98205.28;;;4.41;78.55
71145;BME280;58812;47.698;17.726;2023-12-22T05:30:19;98226.22;;;4.52;76.41
71145;BME280;58812;47.698;17.726;2023-12-22T05:32:45;98237.28;;;4.48;76.55
71145;BME280;58812;47.698;17.726;2023-12-22T05:35:10;98242.19;;;4.35;77.87
71145;BME280;58812;47.698;17.726;2023-12-22T05:37:36;98247.63;;;4.33;79.31
71145;BME280;58812;47.698;17.726;2023-12-22T05:40:02;98249.56;;;4.23;81.08
71145;BME280;58812;47.698;17.726;2023-12-22T05:42:27;98250.84;;;4.19;82.48
71145;BME280;58812;47.698;17.726;2023-12-22T05:44:52;98242.41;;;4.15;83.97
71145;BME280;58812;47.698;17.726;2023-12-22T05:47:18;98240.66;;;4.06;84.84
71145;BME280;58812;47.698;17.726;2023-12-22T05:49:44;98231.56;;;4.09;85.74
71145;BME280;58812;47.698;17.726;2023-12-22T05:52:09;98232.87;;;4.05;87.86
71145;BME280;58812;47.698;17.726;2023-12-22T05:54:35;98239.84;;;4.06;88.95
71145;BME280;58812;47.698;17.726;2023-12-22T05:57:01;98248.78;;;4.05;89.77
71145;BME280;58812;47.698;17.726;2023-12-22T05:59:26;98249.59;;;4.05;90.16
71145;BME280;58812;47.698;17.726;2023-12-22T06:01:53;98250.53;;;4.22;89.46
71145;BME280;58812;47.698;17.726;2023-12-22T06:04:19;98248.09;;;4.28;89.23
71145;BME280;58812;47.698;17.726;2023-12-22T06:06:44;98232.41;;;4.35;88.81
71145;BME280;58812;47.698;17.726;2023-12-22T06:09:10;98242.63;;;4.30;88.71
71145;BME280;58812;47.698;17.726;2023-12-22T06:11:38;98240.16;;;4.28;88.63
71145;BME280;58812;47.698;17.726;2023-12-22T06:14:05;98228.62;;;4.12;90.00
71145;BME280;58812;47.698;17.726;2023-12-22T06:16:30;98238.31;;;4.03;90.43
71145;BME280;58812;47.698;17.726;2023-12-22T06:18:56;98255.31;;;3.92;91.22
71145;BME280;58812;47.698;17.726;2023-12-22T06:21:22;98257.34;;;3.81;91.97
71145;BME280;58812;47.698;17.726;2023-12-22T06:23:47;98263.09;;;3.76;92.37
71145;BME280;58812;47.698;17.726;2023-12-22T06:26:12;98272.69;;;3.77;92.80
71145;BME280;58812;47.698;17.726;2023-12-22T06:28:39;98265.13;;;3.82;92.59
71145;BME280;58812;47.698;17.726;2023-12-22T06:31:08;98242.81;;;3.85;92.57
71145;BME280;58812;47.698;17.726;2023-12-22T06:33:34;98264.81;;;3.85;92.60
71145;BME280;58812;47.698;17.726;2023-12-22T06:35:59;98254.75;;;3.89;92.32
71145;BME280;58812;47.698;17.726;2023-12-22T06:38:24;98265.88;;;3.92;91.92
71145;BME280;58812;47.698;17.726;2023-12-22T06:40:50;98266.94;;;3.99;90.99
71145;BME280;58812;47.698;17.726;2023-12-22T06:43:15;98263.00;;;4.04;90.28
71145;BME280;58812;47.698;17.726;2023-12-22T06:45:41;98264.34;;;4.08;89.37
71145;BME280;58812;47.698;17.726;2023-12-22T06:48:07;98278.56;;;4.07;89.40
71145;BME280;58812;47.698;17.726;2023-12-22T06:50:34;98271.81;;;4.12;88.78
71145;BME280;58812;47.698;17.726;2023-12-22T06:53:02;98259.78;;;4.18;88.00
71145;BME280;58812;47.698;17.726;2023-12-22T06:55:27;98277.31;;;4.19;87.83
71145;BME280;58812;47.698;17.726;2023-12-22T06:57:53;98277.59;;;4.34;86.14
71145;BME280;58812;47.698;17.726;2023-12-22T07:00:19;98264.50;;;4.32;86.19
71145;BME280;58812;47.698;17.726;2023-12-22T07:02:45;98254.87;;;4.31;86.07
71145;BME280;58812;47.698;17.726;2023-12-22T07:07:46;98282.38;;;4.30;85.84
71145;BME280;58812;47.698;17.726;2023-12-22T07:10:11;98278.72;;;4.31;85.10
71145;BME280;58812;47.698;17.726;2023-12-22T07:12:38;98288.34;;;4.32;84.78
71145;BME280;58812;47.698;17.726;2023-12-22T07:15:05;98299.25;;;4.29;84.33
71145;BME280;58812;47.698;17.726;2023-12-22T07:17:32;98302.97;;;4.18;85.85
71145;BME280;58812;47.698;17.726;2023-12-22T07:19:57;98296.22;;;4.24;84.85
71145;BME280;58812;47.698;17.726;2023-12-22T07:22:23;98290.62;;;4.27;84.06
71145;BME280;58812;47.698;17.726;2023-12-22T07:24:48;98297.00;;;4.16;85.14
71145;BME280;58812;47.698;17.726;2023-12-22T07:27:14;98286.50;;;4.07;85.31
71145;BME280;58812;47.698;17.726;2023-12-22T07:29:40;98291.59;;;4.00;85.78
71145;BME280;58812;47.698;17.726;2023-12-22T07:32:05;98287.44;;;3.97;85.41
71145;BME280;58812;47.698;17.726;2023-12-22T07:34:31;98282.44;;;3.94;85.14
71145;BME280;58812;47.698;17.726;2023-12-22T07:36:56;98285.84;;;4.05;83.64
71145;BME280;58812;47.698;17.726;2023-12-22T07:39:22;98293.41;;;3.99;84.21
71145;BME280;58812;47.698;17.726;2023-12-22T07:41:48;98289.97;;;4.07;83.69
71145;BME280;58812;47.698;17.726;2023-12-22T07:44:13;98282.72;;;4.09;83.52
71145;BME280;58812;47.698;17.726;2023-12-22T07:46:39;98297.06;;;4.24;83.01
71145;BME280;58812;47.698;17.726;2023-12-22T07:49:04;98305.28;;;4.39;82.06
71145;BME280;58812;47.698;17.726;2023-12-22T07:51:30;98302.97;;;4.44;82.10
71145;BME280;58812;47.698;17.726;2023-12-22T07:53:55;98300.41;;;4.52;81.08
71145;BME280;58812;47.698;17.726;2023-12-22T07:56:20;98293.75;;;4.48;82.04
71145;BME280;58812;47.698;17.726;2023-12-22T07:58:46;98305.16;;;4.49;81.52
71145;BME280;58812;47.698;17.726;2023-12-22T08:01:12;98311.28;;;4.49;81.10
71145;BME280;58812;47.698;17.726;2023-12-22T08:03:37;98310.09;;;4.44;81.89
71145;BME280;58812;47.698;17.726;2023-12-22T08:06:03;98306.63;;;4.43;81.89
71145;BME280;58812;47.698;17.726;2023-12-22T08:08:29;98300.00;;;4.39;82.74
71145;BME280;58812;47.698;17.726;2023-12-22T08:10:54;98285.06;;;4.38;81.88
71145;BME280;58812;47.698;17.726;2023-12-22T08:13:20;98289.72;;;4.44;81.80
71145;BME280;58812;47.698;17.726;2023-12-22T08:15:45;98297.38;;;4.47;82.18
71145;BME280;58812;47.698;17.726;2023-12-22T08:18:11;98305.25;;;4.57;81.21
71145;BME280;58812;47.698;17.726;2023-12-22T08:20:36;98316.66;;;4.58;81.73
71145;BME280;58812;47.698;17.726;2023-12-22T08:23:02;98318.78;;;4.54;81.51
71145;BME280;58812;47.698;17.726;2023-12-22T08:25:27;98335.84;;;4.51;82.50
71145;BME280;58812;47.698;17.726;2023-12-22T08:27:53;98343.09;;;4.49;82.36
71145;BME280;58812;47.698;17.726;2023-12-22T08:30:18;98339.41;;;4.42;83.66
71145;BME280;58812;47.698;17.726;2023-12-22T08:32:44;98328.91;;;4.33;83.71
71145;BME280;58812;47.698;17.726;2023-12-22T08:35:10;98321.44;;;4.28;84.25
71145;BME280;58812;47.698;17.726;2023-12-22T08:37:35;98325.91;;;4.27;83.91
71145;BME280;58812;47.698;17.726;2023-12-22T08:40:01;98331.34;;;4.26;84.73
71145;BME280;58812;47.698;17.726;2023-12-22T08:42:28;98333.69;;;4.29;84.64
71145;BME280;58812;47.698;17.726;2023-12-22T08:44:54;98334.16;;;4.24;85.34
71145;BME280;58812;47.698;17.726;2023-12-22T08:47:19;98331.19;;;4.27;85.20
71145;BME280;58812;47.698;17.726;2023-12-22T08:49:45;98336.34;;;4.29;85.55
71145;BME280;58812;47.698;17.726;2023-12-22T08:52:10;98328.91;;;4.33;85.73
71145;BME280;58812;47.698;17.726;2023-12-22T08:54:36;98327.44;;;4.38;85.76
71145;BME280;58812;47.698;17.726;2023-12-22T08:57:02;98317.44;;;4.50;84.53
71145;BME280;58812;47.698;17.726;2023-12-22T08:59:28;98330.53;;;4.51;84.84
71145;BME280;58812;47.698;17.726;2023-12-22T09:01:53;98330.53;;;4.51;85.06
71145;BME280;58812;47.698;17.726;2023-12-22T09:04:18;98350.22;;;4.49;85.77
71145;BME280;58812;47.698;17.726;2023-12-22T09:06:47;98349.84;;;4.44;86.11
71145;BME280;58812;47.698;17.726;2023-12-22T09:09:13;98352.34;;;4.45;85.46
71145;BME280;58812;47.698;17.726;2023-12-22T09:11:38;98350.66;;;4.44;86.53
71145;BME280;58812;47.698;17.726;2023-12-22T09:14:05;98337.59;;;4.43;86.32
71145;BME280;58812;47.698;17.726;2023-12-22T09:16:34;98347.34;;;4.42;86.24
71145;BME280;58812;47.698;17.726;2023-12-22T09:19:00;98343.03;;;4.41;86.58
71145;BME280;58812;47.698;17.726;2023-12-22T09:21:26;98340.41;;;4.41;87.40
71145;BME280;58812;47.698;17.726;2023-12-22T09:23:51;98346.22;;;4.45;87.44
71145;BME280;58812;47.698;17.726;2023-12-22T09:26:17;98352.34;;;4.45;88.37
71145;BME280;58812;47.698;17.726;2023-12-22T09:28:44;98355.06;;;4.53;87.12
71145;BME280;58812;47.698;17.726;2023-12-22T09:31:09;98361.22;;;4.62;87.55
71145;BME280;58812;47.698;17.726;2023-12-22T09:33:35;98355.16;;;4.70;86.77
71145;BME280;58812;47.698;17.726;2023-12-22T09:36:01;98365.84;;;4.86;84.95
71145;BME280;58812;47.698;17.726;2023-12-22T09:38:26;98366.50;;;5.14;83.69
71145;BME280;58812;47.698;17.726;2023-12-22T09:40:53;98357.84;;;5.46;80.78
71145;BME280;58812;47.698;17.726;2023-12-22T09:43:19;98356.56;;;5.58;79.71
71145;BME280;58812;47.698;17.726;2023-12-22T09:45:49;98345.44;;;5.55;80.61
71145;BME280;58812;47.698;17.726;2023-12-22T09:48:16;98344.66;;;5.71;79.62
71145;BME280;58812;47.698;17.726;2023-12-22T09:50:46;98323.28;;;5.88;78.39
71145;BME280;58812;47.698;17.726;2023-12-22T09:53:15;98319.47;;;5.91;78.44
71145;BME280;58812;47.698;17.726;2023-12-22T09:55:43;98324.13;;;5.97;79.84
71145;BME280;58812;47.698;17.726;2023-12-22T09:58:10;98317.69;;;6.00;79.31
71145;BME280;58812;47.698;17.726;2023-12-22T10:00:37;98307.19;;;6.39;77.16
71145;BME280;58812;47.698;17.726;2023-12-22T10:03:10;98295.72;;;6.47;76.31
71145;BME280;58812;47.698;17.726;2023-12-22T10:05:36;98302.91;;;6.13;75.75
71145;BME280;58812;47.698;17.726;2023-12-22T10:08:03;98296.53;;;6.55;76.44
71145;BME280;58812;47.698;17.726;2023-12-22T10:10:30;98288.72;;;6.54;75.83
71145;BME280;58812;47.698;17.726;2023-12-22T10:12:56;98287.28;;;6.35;75.20
71145;BME280;58812;47.698;17.726;2023-12-22T10:15:23;98293.91;;;6.31;74.89
71145;BME280;58812;47.698;17.726;2023-12-22T10:17:53;98308.19;;;6.22;75.37
71145;BME280;58812;47.698;17.726;2023-12-22T10:20:19;98294.59;;;6.00;75.38
71145;BME280;58812;47.698;17.726;2023-12-22T10:22:44;98283.28;;;5.90;75.67
71145;BME280;58812;47.698;17.726;2023-12-22T10:25:10;98291.59;;;5.95;74.91
71145;BME280;58812;47.698;17.726;2023-12-22T10:27:36;98313.84;;;5.94;74.56
71145;BME280;58812;47.698;17.726;2023-12-22T10:30:02;98304.22;;;6.01;74.18
71145;BME280;58812;47.698;17.726;2023-12-22T10:32:29;98315.00;;;6.08;73.81
71145;BME280;58812;47.698;17.726;2023-12-22T10:34:55;98315.19;;;6.14;73.18
71145;BME280;58812;47.698;17.726;2023-12-22T10:37:23;98315.50;;;6.20;72.43
71145;BME280;58812;47.698;17.726;2023-12-22T10:39:52;98307.22;;;6.23;72.13
71145;BME280;58812;47.698;17.726;2023-12-22T10:42:18;98313.38;;;6.23;71.90
71145;BME280;58812;47.698;17.726;2023-12-22T10:44:43;98319.50;;;6.24;74.57
71145;BME280;58812;47.698;17.726;2023-12-22T10:47:09;98320.00;;;6.19;77.94
71145;BME280;58812;47.698;17.726;2023-12-22T10:49:36;98316.50;;;6.27;77.42
71145;BME280;58812;47.698;17.726;2023-12-22T10:52:02;98325.81;;;6.23;77.47
71145;BME280;58812;47.698;17.726;2023-12-22T10:54:27;98315.34;;;6.13;78.04
71145;BME280;58812;47.698;17.726;2023-12-22T10:56:57;98322.81;;;6.09;78.02
71145;BME280;58812;47.698;17.726;2023-12-22T10:59:29;98332.13;;;6.05;78.64
71145;BME280;58812;47.698;17.726;2023-12-22T11:01:57;98327.94;;;6.03;76.34
71145;BME280;58812;47.698;17.726;2023-12-22T11:04:31;98333.75;;;5.98;78.54
71145;BME280;58812;47.698;17.726;2023-12-22T11:07:03;98341.72;;;5.98;76.95
71145;BME280;58812;47.698;17.726;2023-12-22T11:09:31;98337.75;;;5.94;78.04
71145;BME280;58812;47.698;17.726;2023-12-22T11:11:58;98333.75;;;5.98;77.25
71145;BME280;58812;47.698;17.726;2023-12-22T11:14:26;98343.88;;;6.03;75.28
71145;BME280;58812;47.698;17.726;2023-12-22T11:16:53;98336.09;;;6.01;75.35
71145;BME280;58812;47.698;17.726;2023-12-22T11:19:20;98332.44;;;6.02;73.30
71145;BME280;58812;47.698;17.726;2023-12-22T11:21:47;98332.78;;;5.99;73.34
71145;BME280;58812;47.698;17.726;2023-12-22T11:24:13;98329.59;;;6.04;70.53
71145;BME280;58812;47.698;17.726;2023-12-22T11:26:42;98323.00;;;6.00;71.52
71145;BME280;58812;47.698;17.726;2023-12-22T11:29:10;98326.13;;;6.03;70.88
71145;BME280;58812;47.698;17.726;2023-12-22T11:31:37;98323.63;;;6.10;68.73
71145;BME280;58812;47.698;17.726;2023-12-22T11:34:04;98328.12;;;6.09;68.48
71145;BME280;58812;47.698;17.726;2023-12-22T11:36:31;98313.50;;;6.13;66.88
71145;BME280;58812;47.698;17.726;2023-12-22T11:38:56;98325.31;;;6.19;66.06
71145;BME280;58812;47.698;17.726;2023-12-22T11:41:25;98322.81;;;6.18;66.10
71145;BME280;58812;47.698;17.726;2023-12-22T11:43:52;98319.47;;;6.15;64.02
71145;BME280;58812;47.698;17.726;2023-12-22T11:46:20;98315.19;;;6.14;64.66
71145;BME280;58812;47.698;17.726;2023-12-22T11:48:51;98314.03;;;6.17;65.18
71145;BME280;58812;47.698;17.726;2023-12-22T11:51:18;98314.19;;;6.32;64.69
71145;BME280;58812;47.698;17.726;2023-12-22T11:53:44;98321.81;;;6.35;65.13
71145;BME280;58812;47.698;17.726;2023-12-22T11:56:11;98317.78;;;6.72;64.73
71145;BME280;58812;47.698;17.726;2023-12-22T12:01:07;98323.94;;;6.56;63.67
71145;BME280;58812;47.698;17.726;2023-12-22T12:03:36;98328.28;;;6.49;65.10
71145;BME280;58812;47.698;17.726;2023-12-22T12:06:13;98326.28;;;6.51;65.66
71145;BME280;58812;47.698;17.726;2023-12-22T12:08:39;98332.09;;;6.46;66.23
71145;BME280;58812;47.698;17.726;2023-12-22T12:11:05;98324.91;;;6.79;66.01
71145;BME280;58812;47.698;17.726;2023-12-22T12:13:32;98323.41;;;6.68;65.66
71145;BME280;58812;47.698;17.726;2023-12-22T12:16:00;98312.09;;;6.83;65.09
71145;BME280;58812;47.698;17.726;2023-12-22T12:18:30;98319.75;;;6.69;66.28
71145;BME280;58812;47.698;17.726;2023-12-22T12:20:56;98314.06;;;6.89;65.79
71145;BME280;58812;47.698;17.726;2023-12-22T12:23:28;98304.31;;;7.52;63.26
71145;BME280;58812;47.698;17.726;2023-12-22T12:25:55;98309.34;;;7.69;62.75
71145;BME280;58812;47.698;17.726;2023-12-22T12:28:28;98309.69;;;7.12;64.23
71145;BME280;58812;47.698;17.726;2023-12-22T12:31:07;98304.19;;;7.45;64.26
71145;BME280;58812;47.698;17.726;2023-12-22T12:33:35;98329.91;;;7.21;65.09
71145;BME280;58812;47.698;17.726;2023-12-22T12:36:01;98318.91;;;6.85;65.00
71145;BME280;58812;47.698;17.726;2023-12-22T12:41:09;98323.47;;;6.52;67.45
71145;BME280;58812;47.698;17.726;2023-12-22T12:43:36;98316.66;;;6.41;67.21
71145;BME280;58812;47.698;17.726;2023-12-22T12:46:05;98307.03;;;6.32;68.05
71145;BME280;58812;47.698;17.726;2023-12-22T12:48:31;98309.34;;;6.27;68.50
71145;BME280;58812;47.698;17.726;2023-12-22T12:51:02;98312.53;;;6.23;68.69
71145;BME280;58812;47.698;17.726;2023-12-22T12:53:30;98299.41;;;6.21;68.60
71145;BME280;58812;47.698;17.726;2023-12-22T12:55:56;98279.63;;;6.15;69.51
71145;BME280;58812;47.698;17.726;2023-12-22T12:58:21;98303.88;;;6.21;69.47
71145;BME280;58812;47.698;17.726;2023-12-22T13:00:52;98304.53;;;6.14;69.81